Plymouth, Maine
Current Conditions -  °F | °C
As of 8:53 PM on Wednesday 26 Nov 2014 (Local Time) from KBGR Reporting Station
Moderate Snow Moderate Snow  
Wind Chill: 20°   Ceiling: 500
Heat Index: 32°   Visibility: 0.5mi
Dew Point: 31°   Wind: 20mph
Humidity: 96%   Direction: 20°NNE
Pressure: 29.92"   Gusts: NA
Location:  44.77°N, 69.21°W
Report Text: KBGR 270153Z 02017KT 1/2SM R15/4000V5500FT SN FG VV005 00/M01 A2992 RMK AO2 SLP133 P0006 T00001006
Loading
Personal Weather Stations






























Interactive Weather Map New forecast layout! Learn more

10-Day Weather Forecast

Advertisements
Track Severe Weather on mobile